Weather History for Hutchinson, MN

Change the Weather History Date:

Saturday, June 29, 2013

  Actual Average Record
Temperature  
Mean Temperature 70 °F -  
Max Temperature 78 °F 83 °F 97 °F (1970)
Min Temperature 63 °F 59 °F 48 °F (1959)
Cooling Degree Days 6    
Growing Degree Days 20 (Base 50)    
Moisture  
Dew Point 59 °F    
Average Humidity 69    
Maximum Humidity 95    
Minimum Humidity 42    
Precipitation  
Precipitation 0.00 in - - ()
Sea Level Pressure  
Sea Level Pressure 29.90 in    
Wind  
Wind Speed 11 mph (North)    
Max Wind Speed 17 mph    
Max Gust Speed 26 mph    
Visibility 10 miles    
Events Rain    
Averages and records for this station are not official NWS values.
T = Trace of Precipitation, MM = Missing Value Source: NWS Daily Summary

Daily Weather History Graph

Daily Weather History Graph

Search for Another Location

Airport:

Trip Planner

Search our weather history database for the weather conditions in past years. The results will help you decide how hot, cold, wet, or windy it might be!

Date:

Astronomy

Jun. 29, 2013 Rise Set
Actual Time 5:34 AM CDT 9:07 PM CDT
Civil Twilight 4:57 AM CDT 9:44 PM CDT
Nautical Twilight 4:08 AM CDT 10:33 PM CDT
Astronomical Twilight 3:03 AM CDT 11:37 PM CDT
Moon 12:18 AM CDT (6/29) 1:06 PM CDT (6/29)
Length of Visible Light 16h 47m
Length of Day
15h 33m
Waning Gibbous, 55% of the Moon is Illuminated
Jun 29
Waning Gibbous
Jun 29
Last Quarter
Jul 8
New
Jul 15
First Quarter
Jul 22
Full

Hourly Weather History & Observations

Time (CDT) Temp. Dew Point Humidity Pressure Visibility Wind Dir Wind Speed Gust Speed Precip Events Conditions
12:13 AM 68.0 °F 61.7 °F 80% 29.84 in 10.0 mi NW 11.5 mph - N/A   Clear
12:34 AM 67.6 °F 61.7 °F 81% 29.83 in 10.0 mi NW 10.4 mph 17.3 mph N/A   Clear
12:54 AM 67.3 °F 61.7 °F 82% 29.82 in 10.0 mi NW 10.4 mph - N/A   Clear
1:13 AM 67.3 °F 61.5 °F 82% 29.82 in 10.0 mi NNW 11.5 mph - N/A   Clear
1:34 AM 66.7 °F 61.5 °F 83% 29.82 in 10.0 mi NW 8.1 mph - N/A   Clear
1:54 AM 66.2 °F 61.7 °F 85% 29.82 in 10.0 mi NW 6.9 mph - N/A   Clear
2:13 AM 66.2 °F 61.7 °F 85% 29.82 in 10.0 mi NW 11.5 mph - N/A   Clear
2:34 AM 66.2 °F 61.7 °F 85% 29.81 in 10.0 mi NW 9.2 mph - N/A   Clear
2:53 AM 66.0 °F 61.7 °F 86% 29.81 in 10.0 mi NW 11.5 mph - N/A   Clear
3:14 AM 65.7 °F 61.3 °F 86% 29.81 in 10.0 mi NW 11.5 mph 17.3 mph N/A   Clear
3:33 AM 65.5 °F 61.3 °F 86% 29.81 in 10.0 mi NW 12.7 mph 18.4 mph N/A   Clear
3:54 AM 65.3 °F 61.5 °F 88% 29.80 in 10.0 mi NW 12.7 mph - N/A   Scattered Clouds
4:14 AM 65.1 °F 61.7 °F 89% 29.81 in 10.0 mi NW 12.7 mph - N/A   Scattered Clouds
4:33 AM 65.3 °F 61.7 °F 88% 29.81 in 10.0 mi NW 13.8 mph 18.4 mph N/A   Mostly Cloudy
4:54 AM 65.5 °F 61.7 °F 88% 29.82 in 10.0 mi NNW 16.1 mph 23.0 mph N/A   Overcast
5:14 AM 65.3 °F 61.7 °F 88% 29.82 in 10.0 mi NNW 15.0 mph - N/A   Mostly Cloudy
5:34 AM 65.3 °F 61.7 °F 88% 29.82 in 10.0 mi NNW 11.5 mph 18.4 mph N/A   Scattered Clouds
5:54 AM 65.5 °F 61.9 °F 88% 29.82 in 10.0 mi NNW 12.7 mph - N/A   Mostly Cloudy
6:14 AM 65.8 °F 61.9 °F 87% 29.83 in 10.0 mi NNW 16.1 mph 23.0 mph N/A   Overcast
6:34 AM 65.5 °F 62.1 °F 89% 29.84 in 10.0 mi NNW 17.3 mph 23.0 mph N/A Rain Light Rain
6:54 AM 63.3 °F 61.9 °F 95% 29.86 in 10.0 mi NNE 15.0 mph 21.9 mph N/A Rain Light Rain
7:14 AM 63.1 °F 61.3 °F 94% 29.86 in 10.0 mi NNE 11.5 mph 18.4 mph N/A   Overcast
7:34 AM 63.5 °F 61.3 °F 93% 29.87 in 10.0 mi North 10.4 mph - N/A   Overcast
7:54 AM 63.9 °F 61.2 °F 91% 29.88 in 10.0 mi North 8.1 mph 16.1 mph N/A   Overcast
8:14 AM 65.3 °F 61.5 °F 88% 29.89 in 10.0 mi North 9.2 mph 18.4 mph N/A   Overcast
8:34 AM 65.1 °F 61.3 °F 88% 29.90 in 10.0 mi North 10.4 mph 16.1 mph N/A   Overcast
8:54 AM 64.8 °F 61.5 °F 89% 29.90 in 7.0 mi North 10.4 mph 17.3 mph N/A   Overcast
9:13 AM 64.2 °F 61.7 °F 91% 29.91 in 10.0 mi NNE 11.5 mph 16.1 mph N/A   Overcast
9:33 AM 67.1 °F 62.1 °F 84% 29.91 in 10.0 mi North 6.9 mph - N/A   Mostly Cloudy
9:53 AM 68.0 °F 62.4 °F 82% 29.91 in 10.0 mi North 11.5 mph 18.4 mph N/A   Mostly Cloudy
10:14 AM 69.4 °F 61.5 °F 76% 29.91 in 10.0 mi North 13.8 mph 19.6 mph N/A   Mostly Cloudy
10:33 AM 70.9 °F 60.8 °F 70% 29.91 in 10.0 mi North 12.7 mph 23.0 mph N/A   Scattered Clouds
10:54 AM 71.8 °F 59.9 °F 66% 29.91 in 10.0 mi North 15.0 mph 21.9 mph N/A   Scattered Clouds
11:14 AM 72.3 °F 60.6 °F 67% 29.92 in 10.0 mi North 11.5 mph 20.7 mph N/A   Scattered Clouds
11:33 AM 73.2 °F 59.9 °F 63% 29.92 in 10.0 mi North 11.5 mph 20.7 mph N/A   Scattered Clouds
11:54 AM 72.1 °F 59.4 °F 64% 29.92 in 10.0 mi North 11.5 mph - N/A   Scattered Clouds
12:14 PM 73.8 °F 60.1 °F 62% 29.92 in 10.0 mi North 15.0 mph 21.9 mph N/A   Mostly Cloudy
12:33 PM 74.7 °F 58.8 °F 58% 29.92 in 10.0 mi NNW 16.1 mph 26.5 mph N/A   Mostly Cloudy
12:54 PM 75.2 °F 58.3 °F 56% 29.92 in 10.0 mi North 10.4 mph 21.9 mph N/A   Mostly Cloudy
1:14 PM 75.9 °F 56.8 °F 51% 29.92 in 10.0 mi NNW 9.2 mph 21.9 mph N/A   Scattered Clouds
1:33 PM 73.9 °F 56.8 °F 55% 29.92 in 10.0 mi North 9.2 mph 21.9 mph N/A   Mostly Cloudy
1:53 PM 76.6 °F 54.7 °F 46% 29.92 in 10.0 mi North 12.7 mph 19.6 mph N/A   Scattered Clouds
2:14 PM 76.3 °F 55.4 °F 48% 29.92 in 10.0 mi North 10.4 mph 23.0 mph N/A   Mostly Cloudy
2:34 PM 76.8 °F 55.0 °F 47% 29.92 in 10.0 mi North 11.5 mph 25.3 mph N/A   Mostly Cloudy
2:54 PM 77.2 °F 53.8 °F 44% 29.92 in 10.0 mi NNE 16.1 mph 23.0 mph N/A   Mostly Cloudy
3:02 PM 77.4 °F 54.5 °F 45% 29.93 in 10.0 mi NNE 13.8 mph 21.9 mph N/A   Scattered Clouds
3:34 PM 76.6 °F 56.8 °F 50% 29.92 in 10.0 mi NNW 12.7 mph 23.0 mph N/A   Mostly Cloudy
3:54 PM 76.1 °F 55.4 °F 49% 29.93 in 10.0 mi North 11.5 mph 20.7 mph N/A   Scattered Clouds
4:14 PM 78.3 °F 54.9 °F 44% 29.93 in 10.0 mi NNE 15.0 mph 20.7 mph N/A   Scattered Clouds
4:33 PM 78.1 °F 53.4 °F 42% 29.93 in 10.0 mi North 8.1 mph 19.6 mph N/A   Clear
4:54 PM 78.6 °F 55.4 °F 45% 29.93 in 10.0 mi North 15.0 mph 20.7 mph N/A   Scattered Clouds
5:13 PM 76.5 °F 54.1 °F 46% 29.93 in 10.0 mi NNE 15.0 mph 23.0 mph N/A   Scattered Clouds
5:34 PM 77.2 °F 55.6 °F 47% 29.94 in 10.0 mi North 11.5 mph 18.4 mph N/A   Scattered Clouds
5:53 PM 78.1 °F 56.3 °F 47% 29.93 in 10.0 mi North 13.8 mph 21.9 mph N/A   Scattered Clouds
6:14 PM 77.0 °F 55.6 °F 47% 29.94 in 10.0 mi North 10.4 mph 17.3 mph N/A   Clear
6:34 PM 76.3 °F 55.2 °F 48% 29.94 in 10.0 mi North 11.5 mph 20.7 mph N/A   Clear
6:52 PM 75.6 °F 54.5 °F 48% 29.94 in 10.0 mi North 11.5 mph 20.7 mph N/A   Clear
7:14 PM 74.5 °F 54.9 °F 50% 29.95 in 10.0 mi North 8.1 mph 17.3 mph N/A   Clear
7:34 PM 75.7 °F 55.4 °F 49% - 10.0 mi North 10.4 mph 17.3 mph N/A   Mostly Cloudy
7:54 PM 74.7 °F 58.3 °F 57% 29.97 in 10.0 mi NE 10.4 mph - N/A   Overcast
8:12 PM 72.5 °F 57.2 °F 59% 29.97 in 10.0 mi NE 9.2 mph - N/A   Overcast
8:34 PM 72.0 °F 56.8 °F 59% 29.98 in 10.0 mi NNE 9.2 mph - N/A   Mostly Cloudy
8:54 PM 71.6 °F 56.7 °F 59% 29.98 in 10.0 mi North 8.1 mph - N/A   Mostly Cloudy
9:13 PM 70.2 °F 57.2 °F 63% 29.98 in 10.0 mi NNE 6.9 mph - N/A   Scattered Clouds
9:34 PM 69.8 °F 56.7 °F 63% 29.98 in 10.0 mi NNE 9.2 mph - N/A   Clear
9:53 PM 69.6 °F 56.3 °F 63% 29.99 in 10.0 mi NE 10.4 mph - N/A   Clear
10:14 PM 68.4 °F 56.7 °F 66% 29.99 in 10.0 mi NE 6.9 mph - N/A   Scattered Clouds
10:34 PM 66.7 °F 57.0 °F 71% 30.00 in 10.0 mi NNE 5.8 mph - N/A   Scattered Clouds
10:53 PM 66.0 °F 55.8 °F 69% 30.00 in 10.0 mi NE 5.8 mph - N/A   Scattered Clouds
11:14 PM 65.5 °F 54.7 °F 68% 30.01 in 10.0 mi North 5.8 mph - N/A   Clear
11:33 PM 65.3 °F 55.2 °F 70% 30.02 in 10.0 mi NNE 6.9 mph - N/A   Clear
11:54 PM 65.1 °F 54.5 °F 68% 30.02 in 10.0 mi NE 8.1 mph - N/A   Clear